createdAt,value
2019-01-18T00:03:43.992Z,1.00
2019-01-18T00:06:24.648Z,1.70
2019-01-18T00:09:05.121Z,1.02
2019-01-18T00:11:45.901Z,1.00
2019-01-18T00:14:24.578Z,1.12
2019-01-18T00:17:12.519Z,1.00
2019-01-18T00:20:00.577Z,1.07
2019-01-18T00:22:48.320Z,1.00
2019-01-18T00:25:36.027Z,1.00
2019-01-18T00:28:23.756Z,1.62
2019-01-18T00:31:11.539Z,1.20
2019-01-18T00:33:59.520Z,0.82
2019-01-18T00:36:47.472Z,0.90
2019-01-18T00:39:28.143Z,1.25
2019-01-18T00:42:08.835Z,0.90
2019-01-18T00:44:49.639Z,1.70
2019-01-18T00:47:30.264Z,0.90
2019-01-18T00:50:11.173Z,1.07
2019-01-18T00:52:52.168Z,0.90
2019-01-18T00:55:33.159Z,0.75
2019-01-18T00:58:13.457Z,0.75
2019-01-18T01:00:54.448Z,0.90
2019-01-18T01:03:34.963Z,1.10
2019-01-18T01:06:15.819Z,1.22
2019-01-18T01:08:56.410Z,1.00
2019-01-18T01:11:36.835Z,0.93
2019-01-18T01:14:17.492Z,1.70
2019-01-18T01:16:57.991Z,1.30
2019-01-18T01:19:38.676Z,1.32
2019-01-18T01:22:19.168Z,0.80
2019-01-18T01:24:59.792Z,1.42
2019-01-18T01:27:40.382Z,0.95
2019-01-18T01:30:21.160Z,0.85
2019-01-18T01:33:02.061Z,1.15
2019-01-18T01:35:42.796Z,0.95
2019-01-18T01:38:23.185Z,1.30
2019-01-18T01:41:03.915Z,1.70
2019-01-18T01:43:44.771Z,1.10
2019-01-18T01:46:25.284Z,1.22
2019-01-18T01:49:06.220Z,0.70
2019-01-18T01:51:46.779Z,0.80
2019-01-18T01:54:27.223Z,0.90
2019-01-18T01:57:07.813Z,0.75
2019-01-18T01:59:49.884Z,1.00
2019-01-18T02:02:31.431Z,1.42
2019-01-18T02:05:11.711Z,0.80
2019-01-18T02:07:52.652Z,0.78
2019-01-18T02:10:33.200Z,0.85
2019-01-18T02:13:14.283Z,0.82
2019-01-18T02:15:55.075Z,0.70
2019-01-18T02:18:35.580Z,1.00
2019-01-18T02:21:16.276Z,0.80
2019-01-18T02:23:57.020Z,1.15
2019-01-18T02:26:37.566Z,0.60
2019-01-18T02:29:18.288Z,0.90
2019-01-18T02:31:58.548Z,0.70
2019-01-18T02:34:39.127Z,1.30
2019-01-18T02:37:20.212Z,0.93
2019-01-18T02:40:00.728Z,1.22
2019-01-18T02:42:42.804Z,1.07
2019-01-18T02:45:23.172Z,0.85
2019-01-18T02:48:04.016Z,0.95
2019-01-18T02:50:44.907Z,0.85
2019-01-18T02:53:25.749Z,0.85
2019-01-18T02:56:06.712Z,0.82
2019-01-18T02:58:47.728Z,0.80
2019-01-18T03:01:28.292Z,0.95
2019-01-18T03:04:08.975Z,0.90
2019-01-18T03:06:49.231Z,0.80
2019-01-18T03:09:29.789Z,1.55
2019-01-18T03:12:10.742Z,0.80
2019-01-18T03:14:50.968Z,0.90
2019-01-18T03:17:31.236Z,0.80
2019-01-18T03:20:11.839Z,0.90
2019-01-18T03:22:52.407Z,1.15
2019-01-18T03:25:32.916Z,1.10
2019-01-18T03:28:13.565Z,1.22
2019-01-18T03:30:54.613Z,0.70
2019-01-18T03:36:19.268Z,0.82
2019-01-18T03:38:59.912Z,1.30
2019-01-18T03:41:40.639Z,1.10
2019-01-18T03:44:21.443Z,0.70
2019-01-18T03:47:01.992Z,1.00
2019-01-18T03:49:42.944Z,1.35
2019-01-18T03:52:23.792Z,0.80
2019-01-18T03:55:04.563Z,1.27
2019-01-18T03:57:45.177Z,0.88
2019-01-18T04:00:26.642Z,0.80
2019-01-18T04:03:07.149Z,1.22
2019-01-18T04:05:47.795Z,0.93
2019-01-18T04:08:28.268Z,1.67
2019-01-18T04:11:09.024Z,0.85
2019-01-18T04:13:49.916Z,0.80
2019-01-18T04:16:31.176Z,1.10
2019-01-18T04:19:12.438Z,0.70
2019-01-18T04:21:52.957Z,1.02
2019-01-18T04:24:33.613Z,0.70
2019-01-18T04:27:14.271Z,0.90
2019-01-18T04:29:54.456Z,0.98
2019-01-18T04:32:34.732Z,1.20
2019-01-18T04:35:14.885Z,0.80
2019-01-18T04:37:55.368Z,0.93
2019-01-18T04:40:39.229Z,0.95
2019-01-18T04:43:19.764Z,1.65
2019-01-18T04:46:00.629Z,0.90
2019-01-18T04:48:41.624Z,0.80
2019-01-18T04:51:22.687Z,1.40
2019-01-18T04:54:03.956Z,1.05
2019-01-18T04:56:45.020Z,0.90
2019-01-18T04:59:25.304Z,0.90
2019-01-18T05:02:05.645Z,1.22
2019-01-18T05:04:46.159Z,1.12
2019-01-18T05:07:26.723Z,0.85
2019-01-18T05:10:07.472Z,0.80
2019-01-18T05:12:48.144Z,1.00
2019-01-18T05:15:28.836Z,1.00
2019-01-18T05:18:09.433Z,1.55
2019-01-18T05:20:50.577Z,1.20
2019-01-18T05:23:31.499Z,0.85
2019-01-18T05:26:12.499Z,1.20
2019-01-18T05:28:52.886Z,1.07
2019-01-18T05:31:33.696Z,1.12
2019-01-18T05:34:14.262Z,1.27
2019-01-18T05:36:55.245Z,1.20
2019-01-18T05:39:36.199Z,0.90
2019-01-18T05:42:16.815Z,1.75
2019-01-18T05:44:57.391Z,1.00
2019-01-18T05:47:37.968Z,1.25
2019-01-18T05:50:18.561Z,1.80
2019-01-18T05:53:01.416Z,1.00
2019-01-18T05:55:42.219Z,1.32
2019-01-18T05:58:22.784Z,1.67
2019-01-18T06:01:03.742Z,1.32
2019-01-18T06:03:43.944Z,2.37
2019-01-18T06:06:24.708Z,1.82
2019-01-18T06:09:05.335Z,1.45
2019-01-18T06:11:45.932Z,1.25
2019-01-18T06:14:26.596Z,1.80
2019-01-18T06:17:06.949Z,1.22
2019-01-18T06:19:47.979Z,1.80
2019-01-18T06:22:28.379Z,1.82
2019-01-18T06:25:09.076Z,0.85
2019-01-18T06:27:49.741Z,1.20
2019-01-18T06:30:30.573Z,1.67
2019-01-18T06:33:11.440Z,1.10
2019-01-18T06:35:52.312Z,1.12
2019-01-18T06:38:32.924Z,1.55
2019-01-18T06:41:15.056Z,1.10
2019-01-18T06:43:55.936Z,1.17
2019-01-18T06:46:36.880Z,1.20
2019-01-18T06:49:17.467Z,1.70
2019-01-18T06:51:58.127Z,1.85
2019-01-18T06:54:38.576Z,2.15
2019-01-18T06:57:19.252Z,1.55
2019-01-18T06:59:59.983Z,1.45
2019-01-18T07:02:41.899Z,0.98
2019-01-18T07:05:23.280Z,1.10
2019-01-18T07:08:03.860Z,1.35
2019-01-18T07:10:44.756Z,1.72
2019-01-18T07:13:25.147Z,1.35
2019-01-18T07:16:05.775Z,2.15
2019-01-18T07:18:46.236Z,1.98
2019-01-18T07:21:26.877Z,1.10
2019-01-18T07:24:07.824Z,2.50
2019-01-18T07:26:48.583Z,1.37
2019-01-18T07:29:29.647Z,1.07
2019-01-18T07:32:10.341Z,2.10
2019-01-18T07:34:51.076Z,1.35
2019-01-18T07:37:31.784Z,1.02
2019-01-18T07:40:12.076Z,1.70
2019-01-18T07:42:52.712Z,1.20
2019-01-18T07:45:33.933Z,2.00
2019-01-18T07:48:14.180Z,1.20
2019-01-18T07:50:54.635Z,2.22
2019-01-18T07:53:35.712Z,1.62
2019-01-18T07:56:16.124Z,1.40
2019-01-18T07:58:56.907Z,1.40
2019-01-18T08:01:37.506Z,1.57
2019-01-18T08:04:18.541Z,2.20
2019-01-18T08:06:59.204Z,1.65
2019-01-18T08:09:39.740Z,1.90
2019-01-18T08:12:20.291Z,2.85
2019-01-18T08:15:00.948Z,3.02
2019-01-18T08:17:41.576Z,2.15
2019-01-18T08:20:22.359Z,1.77
2019-01-18T08:23:03.290Z,2.67
2019-01-18T08:25:44.040Z,1.52
2019-01-18T08:28:24.500Z,2.52
2019-01-18T08:31:05.348Z,2.95
2019-01-18T08:33:46.288Z,2.72
2019-01-18T08:36:26.804Z,1.90
2019-01-18T08:39:07.999Z,2.85
2019-01-18T08:41:48.660Z,2.25
2019-01-18T08:44:29.260Z,2.65
2019-01-18T08:47:10.106Z,2.55
2019-01-18T08:49:50.737Z,2.70
2019-01-18T08:52:31.300Z,2.75
2019-01-18T08:55:12.536Z,1.98
2019-01-18T08:57:53.191Z,3.35
2019-01-18T09:00:33.697Z,2.80
2019-01-18T09:03:14.100Z,2.95
2019-01-18T09:05:54.628Z,2.72
2019-01-18T09:08:35.352Z,2.58
2019-01-18T09:11:15.960Z,3.83
2019-01-18T09:13:59.900Z,3.77
2019-01-18T09:16:38.915Z,3.25
2019-01-18T09:19:19.339Z,2.95
2019-01-18T09:22:00.296Z,4.72
2019-01-18T09:24:41.011Z,3.85
2019-01-18T09:27:21.505Z,3.67
2019-01-18T09:30:02.008Z,3.70
2019-01-18T09:32:42.824Z,3.50
2019-01-18T09:35:23.373Z,4.10
2019-01-18T09:38:04.068Z,4.22
2019-01-18T09:40:44.772Z,3.87
2019-01-18T09:43:25.312Z,4.03
2019-01-18T09:46:06.076Z,4.30
2019-01-18T09:48:46.668Z,3.10
2019-01-18T09:51:27.512Z,3.70
2019-01-18T09:54:08.288Z,4.35
2019-01-18T09:56:48.956Z,3.40
2019-01-18T09:59:29.695Z,3.52
2019-01-18T10:02:10.248Z,4.20
2019-01-18T10:04:51.464Z,4.25
2019-01-18T10:07:32.425Z,5.00
2019-01-18T10:10:12.848Z,4.20
2019-01-18T10:12:53.533Z,3.80
2019-01-18T10:15:34.272Z,3.80
2019-01-18T10:18:14.685Z,4.08
2019-01-18T10:20:55.584Z,4.95
2019-01-18T10:23:36.341Z,4.20
2019-01-18T10:26:17.007Z,4.20
2019-01-18T10:28:58.180Z,4.60
2019-01-18T10:31:38.750Z,3.80
2019-01-18T10:34:19.250Z,3.47
2019-01-18T10:36:59.818Z,4.30
2019-01-18T10:39:40.520Z,5.30
2019-01-18T10:42:21.076Z,4.50
2019-01-18T10:45:01.961Z,4.40
2019-01-18T10:47:42.672Z,3.62
2019-01-18T10:50:23.377Z,3.52
2019-01-18T10:53:04.106Z,3.27
2019-01-18T10:55:44.503Z,3.00
2019-01-18T10:58:25.504Z,3.20
2019-01-18T11:01:06.251Z,3.50
2019-01-18T11:03:47.065Z,3.30
2019-01-18T11:06:27.752Z,3.17
2019-01-18T11:09:09.692Z,3.87
2019-01-18T11:11:50.168Z,2.85
2019-01-18T11:14:30.990Z,3.45
2019-01-18T11:17:11.936Z,2.95
2019-01-18T11:19:52.765Z,4.83
2019-01-18T11:22:33.121Z,3.27
2019-01-18T11:25:14.551Z,3.55
2019-01-18T11:27:55.560Z,3.80
2019-01-18T11:30:36.296Z,3.10
2019-01-18T11:33:17.193Z,3.50
2019-01-18T11:35:58.052Z,3.70
2019-01-18T11:38:38.667Z,4.80
2019-01-18T11:41:19.795Z,4.03
2019-01-18T11:44:00.520Z,3.65
2019-01-18T11:46:41.675Z,3.72
2019-01-18T11:49:21.996Z,3.83
2019-01-18T11:52:02.965Z,3.58
2019-01-18T11:54:44.132Z,4.20
2019-01-18T11:57:24.988Z,3.10
2019-01-18T12:00:06.047Z,3.58
2019-01-18T12:02:46.491Z,4.15
2019-01-18T12:05:26.710Z,3.55
2019-01-18T12:08:07.480Z,3.65
2019-01-18T12:10:48.033Z,3.40
2019-01-18T12:13:28.621Z,3.95
2019-01-18T12:16:09.486Z,3.10
2019-01-18T12:18:50.379Z,3.92
2019-01-18T12:21:37.002Z,3.45
2019-01-18T12:24:14.184Z,3.90
2019-01-18T12:26:55.065Z,3.77
2019-01-18T12:29:35.986Z,3.30
2019-01-18T12:32:16.317Z,3.75
2019-01-18T12:34:57.246Z,3.67
2019-01-18T12:37:38.428Z,3.10
2019-01-18T12:40:19.223Z,3.60
2019-01-18T12:42:59.997Z,3.40
2019-01-18T12:45:41.610Z,3.87
2019-01-18T12:48:22.308Z,3.50
2019-01-18T12:51:03.489Z,3.22
2019-01-18T12:53:44.588Z,2.65
2019-01-18T12:56:25.237Z,2.60
2019-01-18T12:59:05.783Z,2.90
2019-01-18T13:01:46.820Z,2.90
2019-01-18T13:04:27.419Z,2.58
2019-01-18T13:07:08.304Z,3.02
2019-01-18T13:09:48.975Z,3.00
2019-01-18T13:12:30.197Z,2.70
2019-01-18T13:15:10.816Z,2.87
2019-01-18T13:17:51.685Z,2.77
2019-01-18T13:20:32.212Z,2.83
2019-01-18T13:23:12.624Z,2.80
2019-01-18T13:25:53.315Z,3.17
2019-01-18T13:28:33.768Z,3.35
2019-01-18T13:31:14.300Z,2.75
2019-01-18T13:33:54.822Z,2.80
2019-01-18T13:36:35.411Z,2.40
2019-01-18T13:39:16.273Z,2.45
2019-01-18T13:41:57.119Z,3.20
2019-01-18T13:44:43.410Z,2.83
2019-01-18T13:47:20.126Z,2.85
2019-01-18T13:50:00.666Z,3.40
2019-01-18T13:52:41.424Z,2.47
2019-01-18T13:55:22.139Z,3.30
2019-01-18T13:58:02.932Z,2.95
2019-01-18T14:00:43.348Z,2.35
2019-01-18T14:03:23.592Z,2.62
2019-01-18T14:06:04.224Z,2.42
2019-01-18T14:08:44.973Z,3.37
2019-01-18T14:11:25.336Z,3.30
2019-01-18T14:14:06.432Z,3.50
2019-01-18T14:16:46.996Z,3.05
2019-01-18T14:19:28.005Z,2.75
2019-01-18T14:22:08.440Z,2.62
2019-01-18T14:24:49.237Z,2.98
2019-01-18T14:27:30.101Z,2.77
2019-01-18T14:30:10.848Z,2.50
2019-01-18T14:32:55.473Z,2.00
2019-01-18T14:35:34.263Z,2.10
2019-01-18T14:38:14.731Z,2.58
2019-01-18T14:40:55.500Z,1.40
2019-01-18T14:43:35.695Z,2.12
2019-01-18T14:46:16.868Z,2.90
2019-01-18T14:48:57.512Z,2.30
2019-01-18T14:51:38.448Z,2.87
2019-01-18T14:54:19.320Z,2.35
2019-01-18T14:56:59.849Z,2.02
2019-01-18T14:59:40.237Z,2.90
2019-01-18T15:02:21.040Z,2.85
2019-01-18T15:05:01.644Z,2.50
2019-01-18T15:07:42.584Z,3.20
2019-01-18T15:10:22.952Z,2.12
2019-01-18T15:13:03.428Z,2.50
2019-01-18T15:15:43.887Z,2.25
2019-01-18T15:18:24.831Z,2.10
2019-01-18T15:21:05.688Z,2.05
2019-01-18T15:23:46.272Z,2.72
2019-01-18T15:26:26.920Z,3.72
2019-01-18T15:29:07.539Z,2.20
2019-01-18T15:31:48.169Z,2.08
2019-01-18T15:34:28.773Z,2.10
2019-01-18T15:37:09.829Z,2.27
2019-01-18T15:39:50.948Z,1.85
2019-01-18T15:42:31.648Z,2.10
2019-01-18T15:45:12.188Z,2.70
2019-01-18T15:47:52.916Z,2.15
2019-01-18T15:50:33.357Z,2.52
2019-01-18T15:53:13.925Z,2.45
2019-01-18T15:55:54.355Z,2.08
2019-01-18T15:58:34.856Z,2.45
2019-01-18T16:01:15.329Z,2.02
2019-01-18T16:03:56.020Z,1.90
2019-01-18T16:06:36.636Z,2.55
2019-01-18T16:09:16.815Z,2.40
2019-01-18T16:11:57.609Z,1.92
2019-01-18T16:14:37.996Z,3.37
2019-01-18T16:17:18.488Z,2.45
2019-01-18T16:19:58.977Z,2.30
2019-01-18T16:22:40.955Z,2.67
2019-01-18T16:25:21.796Z,2.55
2019-01-18T16:28:02.364Z,2.45
2019-01-18T16:30:42.844Z,2.05
2019-01-18T16:33:23.796Z,2.50
2019-01-18T16:36:04.911Z,2.15
2019-01-18T16:38:45.896Z,2.12
2019-01-18T16:41:26.764Z,2.15
2019-01-18T16:44:07.312Z,1.45
2019-01-18T16:46:48.401Z,2.15
2019-01-18T16:49:28.690Z,1.77
2019-01-18T16:52:09.379Z,2.60
2019-01-18T16:54:50.072Z,1.92
2019-01-18T16:57:30.488Z,1.87
2019-01-18T17:00:11.268Z,2.95
2019-01-18T17:02:51.921Z,2.15
2019-01-18T17:05:32.489Z,1.92
2019-01-18T17:08:13.196Z,2.12
2019-01-18T17:10:53.747Z,1.98
2019-01-18T17:13:34.389Z,1.67
2019-01-18T17:16:14.913Z,2.47
2019-01-18T17:18:55.680Z,1.42
2019-01-18T17:21:36.221Z,1.70
2019-01-18T17:24:16.612Z,2.95
2019-01-18T17:26:57.604Z,2.17
2019-01-18T17:29:38.476Z,1.98
2019-01-18T17:32:19.401Z,1.60
2019-01-18T17:34:59.884Z,2.12
2019-01-18T17:37:40.883Z,1.65
2019-01-18T17:40:21.530Z,1.80
2019-01-18T17:43:01.783Z,1.57
2019-01-18T17:45:42.817Z,1.40
2019-01-18T17:48:23.907Z,1.45
2019-01-18T17:51:09.006Z,1.80
2019-01-18T17:53:47.537Z,1.90
2019-01-18T17:56:28.172Z,1.25
2019-01-18T17:59:08.896Z,1.67
2019-01-18T18:01:49.516Z,1.15
2019-01-18T18:04:30.152Z,1.10
2019-01-18T18:07:11.144Z,1.20
2019-01-18T18:09:51.424Z,1.45
2019-01-18T18:12:31.848Z,1.70
2019-01-18T18:15:12.360Z,1.55
2019-01-18T18:17:53.144Z,2.02
2019-01-18T18:20:34.206Z,1.52
2019-01-18T18:23:14.616Z,1.95
2019-01-18T18:25:55.357Z,1.65
2019-01-18T18:28:36.288Z,2.65
2019-01-18T18:31:17.004Z,1.45
2019-01-18T18:33:57.773Z,1.65
2019-01-18T18:36:38.752Z,1.37
2019-01-18T18:39:19.799Z,1.30
2019-01-18T18:42:00.697Z,1.42
2019-01-18T18:44:41.764Z,2.35
2019-01-18T18:47:22.624Z,1.62
2019-01-18T18:50:03.388Z,1.57
2019-01-18T18:52:44.209Z,1.95
2019-01-18T18:55:24.600Z,2.02
2019-01-18T18:58:05.024Z,1.20
2019-01-18T19:00:46.097Z,1.52
2019-01-18T19:03:26.788Z,1.82
2019-01-18T19:06:07.336Z,2.15
2019-01-18T19:08:48.382Z,2.40
2019-01-18T19:11:28.631Z,2.00
2019-01-18T19:14:09.033Z,1.15
2019-01-18T19:16:49.827Z,1.52
2019-01-18T19:19:30.477Z,2.55
2019-01-18T19:22:11.532Z,1.45
2019-01-18T19:24:52.461Z,2.92
2019-01-18T19:27:32.786Z,2.95
2019-01-18T19:30:13.375Z,2.42
2019-01-18T19:32:54.324Z,1.40
2019-01-18T19:35:34.996Z,2.47
2019-01-18T19:38:15.788Z,1.70
2019-01-18T19:40:56.609Z,2.67
2019-01-18T19:43:36.987Z,1.67
2019-01-18T19:46:17.712Z,3.12
2019-01-18T19:48:58.793Z,2.00
2019-01-18T19:51:39.540Z,1.62
2019-01-18T19:54:20.153Z,1.90
2019-01-18T19:57:00.879Z,1.82
2019-01-18T19:59:41.195Z,2.20
2019-01-18T20:02:21.870Z,1.75
2019-01-18T20:05:02.356Z,2.52
2019-01-18T20:07:42.804Z,1.10
2019-01-18T20:10:23.943Z,1.60
2019-01-18T20:13:07.297Z,2.47
2019-01-18T20:15:47.580Z,3.17
2019-01-18T20:18:28.304Z,1.77
2019-01-18T20:21:08.757Z,1.72
2019-01-18T20:23:49.356Z,2.00
2019-01-18T20:26:30.176Z,3.58
2019-01-18T20:29:10.945Z,2.12
2019-01-18T20:31:51.729Z,1.90
2019-01-18T20:34:32.272Z,2.08
2019-01-18T20:37:12.992Z,2.22
2019-01-18T20:39:53.824Z,1.35
2019-01-18T20:42:34.604Z,1.80
2019-01-18T20:45:15.420Z,2.05
2019-01-18T20:47:56.122Z,2.35
2019-01-18T20:53:19.098Z,2.37
2019-01-18T20:56:00.029Z,3.02
2019-01-18T20:58:40.832Z,1.57
2019-01-18T21:01:21.484Z,2.95
2019-01-18T21:04:02.225Z,2.67
2019-01-18T21:06:42.676Z,1.85
2019-01-18T21:09:23.385Z,1.80
2019-01-18T21:12:03.926Z,1.60
2019-01-18T21:14:44.788Z,2.62
2019-01-18T21:17:25.412Z,2.17
2019-01-18T21:20:06.249Z,1.57
2019-01-18T21:22:46.676Z,2.42
2019-01-18T21:25:27.513Z,1.80
2019-01-18T21:28:08.209Z,2.08
2019-01-18T21:30:49.096Z,2.25
2019-01-18T21:33:29.644Z,2.20
2019-01-18T21:36:10.209Z,1.85
2019-01-18T21:38:50.666Z,2.80
2019-01-18T21:41:31.693Z,2.75
2019-01-18T21:44:12.620Z,2.50
2019-01-18T21:46:53.147Z,2.65
2019-01-18T21:49:34.011Z,1.87
2019-01-18T21:52:14.788Z,1.82
2019-01-18T21:54:55.733Z,3.05
2019-01-18T21:57:36.404Z,1.55
2019-01-18T22:00:17.392Z,1.87
2019-01-18T22:02:57.983Z,1.30
2019-01-18T22:05:39.219Z,1.50
2019-01-18T22:08:19.660Z,1.30
2019-01-18T22:11:00.460Z,2.00
2019-01-18T22:13:41.273Z,1.70
2019-01-18T22:16:21.607Z,1.17
2019-01-18T22:19:02.244Z,1.45
2019-01-18T22:21:43.396Z,1.30
2019-01-18T22:24:24.227Z,1.10
2019-01-18T22:27:04.420Z,2.08
2019-01-18T22:29:44.868Z,1.92
2019-01-18T22:32:25.659Z,1.45
2019-01-18T22:35:06.520Z,1.82
2019-01-18T22:37:46.912Z,2.10
2019-01-18T22:40:27.656Z,1.57
2019-01-18T22:43:07.888Z,2.00
2019-01-18T22:45:48.376Z,1.60
2019-01-18T22:48:29.060Z,2.52
2019-01-18T22:51:09.784Z,1.57
2019-01-18T22:53:50.599Z,1.70
2019-01-18T22:56:31.229Z,3.40
2019-01-18T22:59:11.448Z,2.25
2019-01-18T23:01:52.153Z,1.30
2019-01-18T23:04:32.628Z,3.00
2019-01-18T23:07:13.280Z,1.25
2019-01-18T23:09:54.389Z,1.45
2019-01-18T23:12:34.752Z,2.05
2019-01-18T23:15:15.244Z,3.22
2019-01-18T23:17:55.941Z,1.90
2019-01-18T23:20:36.959Z,1.35
2019-01-18T23:23:18.235Z,2.12
2019-01-18T23:25:59.105Z,1.98
2019-01-18T23:28:39.784Z,2.60
2019-01-18T23:31:20.689Z,2.00
2019-01-18T23:34:01.678Z,2.33
2019-01-18T23:36:42.211Z,1.90
2019-01-18T23:39:22.936Z,2.12
2019-01-18T23:42:03.444Z,2.37
2019-01-18T23:44:44.327Z,2.30
2019-01-18T23:47:25.732Z,2.25
2019-01-18T23:50:06.865Z,2.70
2019-01-18T23:52:47.424Z,2.00
2019-01-18T23:55:28.119Z,1.32
2019-01-18T23:58:08.704Z,2.98
